createdAt,value
2023-03-06T00:01:10.125Z,7.30
2023-03-06T00:03:37.636Z,6.85
2023-03-06T00:06:04.134Z,8.02
2023-03-06T00:08:30.612Z,7.75
2023-03-06T00:10:57.007Z,6.90
2023-03-06T00:13:23.472Z,7.00
2023-03-06T00:15:50.135Z,6.82
2023-03-06T00:18:16.941Z,7.25
2023-03-06T00:20:43.261Z,6.13
2023-03-06T00:23:09.754Z,6.88
2023-03-06T00:25:36.064Z,6.38
2023-03-06T00:28:02.457Z,7.80
2023-03-06T00:30:28.965Z,7.97
2023-03-06T00:32:55.379Z,6.55
2023-03-06T00:35:21.726Z,6.63
2023-03-06T00:37:48.191Z,6.65
2023-03-06T00:40:14.665Z,6.63
2023-03-06T00:42:41.411Z,6.93
2023-03-06T00:45:07.847Z,5.88
2023-03-06T00:47:34.203Z,6.07
2023-03-06T00:50:00.672Z,6.10
2023-03-06T00:52:27.265Z,6.60
2023-03-06T00:54:53.777Z,6.18
2023-03-06T00:57:20.142Z,6.55
2023-03-06T00:59:46.514Z,6.57
2023-03-06T01:02:13.282Z,5.97
2023-03-06T01:04:39.777Z,5.45
2023-03-06T01:07:06.384Z,5.45
2023-03-06T01:09:32.787Z,6.22
2023-03-06T01:11:59.176Z,6.05
2023-03-06T01:14:25.508Z,5.60
2023-03-06T01:16:51.843Z,6.07
2023-03-06T01:19:18.482Z,5.30
2023-03-06T01:21:44.926Z,6.03
2023-03-06T01:24:11.258Z,5.53
2023-03-06T01:26:37.657Z,5.20
2023-03-06T01:29:04.036Z,7.03
2023-03-06T01:31:30.621Z,5.30
2023-03-06T01:33:57.372Z,5.65
2023-03-06T01:36:23.695Z,5.47
2023-03-06T01:38:50.072Z,4.90
2023-03-06T01:41:16.460Z,5.38
2023-03-06T01:43:42.824Z,5.55
2023-03-06T01:46:09.216Z,5.60
2023-03-06T01:48:35.927Z,5.28
2023-03-06T01:51:02.270Z,5.05
2023-03-06T01:53:28.778Z,5.78
2023-03-06T01:55:55.185Z,5.05
2023-03-06T01:58:21.623Z,5.13
2023-03-06T02:00:48.136Z,5.05
2023-03-06T02:03:17.049Z,5.25
2023-03-06T02:05:43.790Z,5.35
2023-03-06T02:08:10.162Z,5.13
2023-03-06T02:10:36.506Z,5.50
2023-03-06T02:13:03.224Z,4.97
2023-03-06T02:15:29.948Z,4.45
2023-03-06T02:17:56.337Z,5.28
2023-03-06T02:20:22.699Z,5.25
2023-03-06T02:22:50.803Z,5.38
2023-03-06T02:25:17.249Z,4.97
2023-03-06T02:27:43.643Z,4.60
2023-03-06T02:30:09.995Z,5.00
2023-03-06T02:32:36.534Z,4.68
2023-03-06T02:35:02.864Z,4.90
2023-03-06T02:37:29.179Z,4.78
2023-03-06T02:39:55.801Z,5.40
2023-03-06T02:42:22.173Z,4.90
2023-03-06T02:44:48.831Z,5.10
2023-03-06T02:47:15.233Z,5.03
2023-03-06T02:49:41.664Z,4.93
2023-03-06T02:52:08.029Z,6.63
2023-03-06T02:54:34.469Z,5.20
2023-03-06T02:57:00.914Z,6.20
2023-03-06T02:59:27.421Z,6.13
2023-03-06T03:01:53.773Z,5.65
2023-03-06T03:04:20.109Z,5.55
2023-03-06T03:06:46.589Z,4.75
2023-03-06T03:09:12.921Z,5.25
2023-03-06T03:11:39.261Z,5.05
2023-03-06T03:14:05.678Z,5.20
2023-03-06T03:16:32.036Z,5.85
2023-03-06T03:18:58.713Z,5.82
2023-03-06T03:21:25.630Z,4.95
2023-03-06T03:23:52.005Z,6.45
2023-03-06T03:26:18.975Z,5.07
2023-03-06T03:28:45.575Z,6.22
2023-03-06T03:31:12.003Z,4.65
2023-03-06T03:33:38.314Z,5.47
2023-03-06T03:36:04.815Z,6.85
2023-03-06T03:38:31.320Z,6.60
2023-03-06T03:40:57.586Z,5.97
2023-03-06T03:43:24.129Z,5.93
2023-03-06T03:45:50.452Z,4.93
2023-03-06T03:48:16.926Z,5.78
2023-03-06T03:50:43.214Z,5.57
2023-03-06T03:53:09.967Z,5.70
2023-03-06T03:55:36.349Z,5.25
2023-03-06T03:58:03.210Z,5.30
2023-03-06T04:00:29.787Z,5.25
2023-03-06T04:02:56.190Z,5.13
2023-03-06T04:05:22.555Z,5.80
2023-03-06T04:07:49.435Z,4.57
2023-03-06T04:10:15.679Z,6.15
2023-03-06T04:12:42.138Z,7.65
2023-03-06T04:15:08.595Z,6.50
2023-03-06T04:17:34.962Z,5.78
2023-03-06T04:20:01.584Z,6.47
2023-03-06T04:22:27.954Z,4.85
2023-03-06T04:24:54.435Z,5.25
2023-03-06T04:27:20.867Z,5.22
2023-03-06T04:29:47.386Z,5.95
2023-03-06T04:32:13.997Z,5.22
2023-03-06T04:34:40.406Z,5.75
2023-03-06T04:37:06.982Z,5.32
2023-03-06T04:39:33.317Z,7.15
2023-03-06T04:41:59.794Z,5.68
2023-03-06T04:44:26.576Z,5.07
2023-03-06T04:46:53.362Z,5.05
2023-03-06T04:49:19.758Z,5.28
2023-03-06T04:51:46.113Z,5.97
2023-03-06T04:54:12.538Z,5.57
2023-03-06T04:56:39.343Z,4.75
2023-03-06T04:59:05.686Z,5.63
2023-03-06T05:01:32.101Z,5.03
2023-03-06T05:03:58.535Z,5.88
2023-03-06T05:06:25.086Z,6.32
2023-03-06T05:08:51.374Z,6.22
2023-03-06T05:11:18.079Z,6.13
2023-03-06T05:13:44.555Z,5.57
2023-03-06T05:16:10.938Z,5.45
2023-03-06T05:18:37.418Z,5.35
2023-03-06T05:21:03.815Z,5.80
2023-03-06T05:23:30.346Z,5.28
2023-03-06T05:25:56.649Z,4.90
2023-03-06T05:28:23.215Z,6.03
2023-03-06T05:30:49.648Z,5.45
2023-03-06T05:33:16.151Z,5.43
2023-03-06T05:35:43.062Z,5.40
2023-03-06T05:38:09.469Z,5.65
2023-03-06T05:40:35.807Z,5.65
2023-03-06T05:43:02.138Z,5.10
2023-03-06T05:45:28.426Z,4.70
2023-03-06T05:47:54.860Z,4.80
2023-03-06T05:50:21.299Z,5.22
2023-03-06T05:52:47.733Z,5.25
2023-03-06T05:55:14.137Z,5.97
2023-03-06T05:57:40.435Z,5.60
2023-03-06T06:00:06.908Z,5.57
2023-03-06T06:02:33.268Z,5.32
2023-03-06T06:04:59.778Z,5.40
2023-03-06T06:07:26.113Z,5.95
2023-03-06T06:09:52.493Z,6.00
2023-03-06T06:12:18.881Z,6.55
2023-03-06T06:14:45.590Z,5.35
2023-03-06T06:17:12.158Z,6.15
2023-03-06T06:19:38.508Z,5.22
2023-03-06T06:22:04.862Z,5.40
2023-03-06T06:24:31.299Z,6.13
2023-03-06T06:26:57.680Z,6.72
2023-03-06T06:29:24.279Z,5.30
2023-03-06T06:31:50.684Z,6.68
2023-03-06T06:34:17.150Z,8.55
2023-03-06T06:36:43.660Z,9.02
2023-03-06T06:39:10.007Z,10.23
2023-03-06T06:41:53.600Z,11.23
2023-03-06T06:44:22.842Z,11.15
2023-03-06T06:47:21.206Z,12.90
2023-03-06T06:49:35.545Z,10.05
2023-03-06T06:52:01.865Z,9.55
2023-03-06T06:54:28.252Z,8.02
2023-03-06T06:56:54.570Z,10.82
2023-03-06T06:59:21.215Z,9.07
2023-03-06T07:01:47.856Z,8.80
2023-03-06T07:04:14.295Z,6.30
2023-03-06T07:06:40.678Z,7.68
2023-03-06T07:09:07.296Z,14.55
2023-03-06T07:11:33.771Z,9.68
2023-03-06T07:14:00.238Z,8.85
2023-03-06T07:16:26.608Z,9.05
2023-03-06T07:18:53.050Z,10.55
2023-03-06T07:21:19.378Z,8.65
2023-03-06T07:23:45.699Z,14.35
2023-03-06T07:26:11.990Z,19.10
2023-03-06T07:28:51.616Z,19.63
2023-03-06T07:31:19.231Z,25.60
2023-03-06T07:33:45.648Z,22.58
2023-03-06T07:36:13.779Z,20.98
2023-03-06T07:38:40.406Z,27.60
2023-03-06T07:41:06.750Z,26.88
2023-03-06T07:43:33.756Z,33.40
2023-03-06T07:46:00.181Z,28.50
2023-03-06T07:48:26.844Z,26.85
2023-03-06T07:50:53.186Z,29.05
2023-03-06T07:53:19.616Z,31.90
2023-03-06T07:55:46.088Z,27.35
2023-03-06T07:58:12.591Z,26.65
2023-03-06T08:00:39.377Z,25.52
2023-03-06T08:03:06.222Z,38.50
2023-03-06T08:05:32.582Z,32.20
2023-03-06T08:07:59.103Z,50.00
2023-03-06T08:10:25.902Z,45.90
2023-03-06T08:12:52.316Z,50.65
2023-03-06T08:15:18.683Z,52.00
2023-03-06T08:17:45.213Z,53.60
2023-03-06T08:20:11.511Z,48.35
2023-03-06T08:22:37.943Z,49.67
2023-03-06T08:25:04.498Z,46.30
2023-03-06T08:27:30.893Z,46.22
2023-03-06T08:29:57.443Z,41.22
2023-03-06T08:32:23.839Z,51.03
2023-03-06T08:34:50.254Z,40.85
2023-03-06T08:37:16.940Z,40.28
2023-03-06T08:39:43.863Z,39.47
2023-03-06T08:42:10.509Z,42.40
2023-03-06T08:44:36.993Z,46.40
2023-03-06T08:47:03.311Z,37.17
2023-03-06T08:49:29.682Z,41.08
2023-03-06T08:51:56.124Z,47.00
2023-03-06T08:54:22.625Z,42.53
2023-03-06T08:56:48.958Z,42.13
2023-03-06T08:59:15.475Z,38.00
2023-03-06T09:01:42.045Z,41.05
2023-03-06T09:04:08.571Z,39.42
2023-03-06T09:06:34.987Z,43.88
2023-03-06T09:09:01.346Z,39.05
2023-03-06T09:11:27.941Z,39.97
2023-03-06T09:13:54.411Z,38.40
2023-03-06T09:16:20.974Z,35.55
2023-03-06T09:18:47.280Z,36.38
2023-03-06T09:21:13.615Z,48.35
2023-03-06T09:23:40.029Z,46.80
2023-03-06T09:26:06.806Z,58.33
2023-03-06T09:28:33.472Z,53.50
2023-03-06T09:30:59.924Z,49.05
2023-03-06T09:33:26.500Z,59.78
2023-03-06T09:35:53.503Z,55.83
2023-03-06T09:38:19.929Z,51.63
2023-03-06T09:40:46.240Z,56.47
2023-03-06T09:43:13.176Z,51.03
2023-03-06T09:45:39.914Z,47.42
2023-03-06T09:48:06.467Z,54.88
2023-03-06T09:50:32.946Z,50.30
2023-03-06T09:52:59.303Z,47.97
2023-03-06T09:55:25.690Z,52.13
2023-03-06T09:57:52.379Z,51.22
2023-03-06T10:00:19.179Z,50.63
2023-03-06T10:02:45.586Z,50.40
2023-03-06T10:05:11.980Z,47.53
2023-03-06T10:07:38.955Z,52.60
2023-03-06T10:10:05.314Z,49.10
2023-03-06T10:12:31.722Z,44.95
2023-03-06T10:14:58.289Z,39.60
2023-03-06T10:17:24.568Z,42.05
2023-03-06T10:19:51.068Z,49.63
2023-03-06T10:22:17.670Z,46.38
2023-03-06T10:24:44.050Z,41.70
2023-03-06T10:27:10.477Z,44.88
2023-03-06T10:29:38.539Z,40.92
2023-03-06T10:32:05.533Z,49.08
2023-03-06T10:34:31.925Z,42.00
2023-03-06T10:36:58.275Z,44.83
2023-03-06T10:39:24.717Z,41.20
2023-03-06T10:41:51.226Z,43.15
2023-03-06T10:44:17.624Z,40.40
2023-03-06T10:46:44.274Z,33.63
2023-03-06T10:49:11.050Z,38.75
2023-03-06T10:51:37.372Z,41.40
2023-03-06T10:54:03.779Z,36.45
2023-03-06T10:56:30.151Z,43.97
2023-03-06T10:58:56.495Z,37.90
2023-03-06T11:01:23.233Z,35.30
2023-03-06T11:03:49.756Z,41.25
2023-03-06T11:06:16.105Z,34.83
2023-03-06T11:08:43.002Z,35.00
2023-03-06T11:11:09.733Z,41.58
2023-03-06T11:13:36.537Z,39.83
2023-03-06T11:16:02.871Z,39.03
2023-03-06T11:18:29.250Z,35.80
2023-03-06T11:20:55.864Z,39.83
2023-03-06T11:23:22.368Z,38.90
2023-03-06T11:25:48.897Z,43.83
2023-03-06T11:28:15.467Z,33.00
2023-03-06T11:30:41.889Z,36.30
2023-03-06T11:33:08.282Z,33.53
2023-03-06T11:35:34.631Z,33.17
2023-03-06T11:38:01.068Z,35.72
2023-03-06T11:40:27.436Z,38.80
2023-03-06T11:42:53.798Z,40.00
2023-03-06T11:45:20.169Z,36.05
2023-03-06T11:47:46.745Z,37.85
2023-03-06T11:50:13.276Z,44.30
2023-03-06T11:52:39.738Z,40.00
2023-03-06T11:55:06.143Z,42.85
2023-03-06T11:57:32.748Z,54.25
2023-03-06T11:59:59.180Z,54.85
2023-03-06T12:02:25.574Z,42.03
2023-03-06T12:04:52.062Z,43.55
2023-03-06T12:07:18.362Z,45.40
2023-03-06T12:09:45.015Z,48.80
2023-03-06T12:12:11.423Z,40.33
2023-03-06T12:14:37.814Z,39.95
2023-03-06T12:17:04.274Z,43.85
2023-03-06T12:19:30.750Z,42.58
2023-03-06T12:21:57.605Z,40.55
2023-03-06T12:24:24.026Z,37.63
2023-03-06T12:26:50.694Z,35.22
2023-03-06T12:29:17.434Z,36.75
2023-03-06T12:31:44.218Z,35.75
2023-03-06T12:34:11.452Z,37.13
2023-03-06T12:36:38.534Z,161.15
2023-03-06T12:39:06.256Z,145.40
2023-03-06T12:41:32.822Z,137.50
2023-03-06T12:43:59.456Z,123.97
2023-03-06T12:46:26.735Z,109.35
2023-03-06T12:48:53.905Z,108.57
2023-03-06T12:51:21.211Z,100.07
2023-03-06T12:53:47.931Z,92.93
2023-03-06T12:56:14.414Z,88.13
2023-03-06T12:58:41.703Z,266.10
2023-03-06T13:01:08.140Z,258.25
2023-03-06T13:03:34.719Z,214.70
2023-03-06T13:06:02.452Z,202.82
2023-03-06T13:08:29.296Z,189.32
2023-03-06T13:10:55.807Z,234.55
2023-03-06T13:13:22.698Z,326.00
2023-03-06T13:15:49.763Z,354.92
2023-03-06T13:18:16.167Z,347.90
2023-03-06T13:20:43.102Z,327.23
2023-03-06T13:23:10.396Z,309.35
2023-03-06T13:25:39.964Z,290.65
2023-03-06T13:28:07.299Z,265.50
2023-03-06T13:30:33.950Z,255.50
2023-03-06T13:33:00.765Z,244.20
2023-03-06T13:35:28.282Z,241.80
2023-03-06T13:37:54.965Z,236.95
2023-03-06T13:40:21.825Z,231.73
2023-03-06T13:42:48.684Z,230.48
2023-03-06T13:45:15.617Z,222.95
2023-03-06T13:48:09.671Z,225.13
2023-03-06T13:50:29.177Z,222.27
2023-03-06T13:52:57.346Z,217.48
2023-03-06T13:55:24.150Z,216.48
2023-03-06T13:57:51.335Z,208.43
2023-03-06T14:00:18.086Z,210.90
2023-03-06T14:02:45.242Z,210.15
2023-03-06T14:05:11.794Z,201.05
2023-03-06T14:07:38.718Z,205.63
2023-03-06T14:10:05.421Z,203.32
2023-03-06T14:12:32.742Z,198.27
2023-03-06T14:14:59.383Z,194.15
2023-03-06T14:17:25.777Z,197.07
2023-03-06T14:19:52.776Z,183.30
2023-03-06T14:22:19.296Z,185.40
2023-03-06T14:24:45.987Z,186.10
2023-03-06T14:27:12.290Z,180.55
2023-03-06T14:29:38.679Z,175.70
2023-03-06T14:32:05.067Z,175.15
2023-03-06T14:34:32.095Z,173.57
2023-03-06T14:36:58.438Z,168.65
2023-03-06T14:39:24.784Z,171.95
2023-03-06T14:41:51.599Z,167.38
2023-03-06T14:44:18.018Z,162.50
2023-03-06T14:46:45.081Z,162.18
2023-03-06T14:49:11.548Z,160.85
2023-03-06T14:51:37.948Z,163.57
2023-03-06T14:54:04.334Z,155.07
2023-03-06T14:56:31.071Z,154.68
2023-03-06T14:58:57.482Z,149.15
2023-03-06T15:01:23.935Z,146.93
2023-03-06T15:03:50.429Z,139.55
2023-03-06T15:06:17.621Z,148.70
2023-03-06T15:08:44.686Z,141.70
2023-03-06T15:11:11.073Z,141.38
2023-03-06T15:13:37.488Z,137.05
2023-03-06T15:16:04.596Z,138.73
2023-03-06T15:18:30.985Z,133.70
2023-03-06T15:20:57.305Z,132.10
2023-03-06T15:23:23.787Z,131.35
2023-03-06T15:25:50.632Z,129.68
2023-03-06T15:28:17.243Z,122.22
2023-03-06T15:30:43.654Z,122.85
2023-03-06T15:33:10.536Z,123.20
2023-03-06T15:35:38.189Z,123.40
2023-03-06T15:38:04.809Z,120.30
2023-03-06T15:40:31.446Z,114.78
2023-03-06T15:42:58.438Z,116.80
2023-03-06T15:45:24.954Z,113.63
2023-03-06T15:47:51.717Z,112.97
2023-03-06T15:50:18.127Z,114.78
2023-03-06T15:52:44.595Z,107.32
2023-03-06T15:55:11.094Z,101.10
2023-03-06T15:57:37.585Z,109.50
2023-03-06T16:00:04.097Z,102.38
2023-03-06T16:02:30.836Z,102.05
2023-03-06T16:04:57.710Z,102.60
2023-03-06T16:07:24.390Z,95.68
2023-03-06T16:09:50.965Z,96.25
2023-03-06T16:12:17.499Z,93.55
2023-03-06T16:14:43.931Z,90.65
2023-03-06T16:17:10.255Z,90.72
2023-03-06T16:19:36.597Z,91.93
2023-03-06T16:22:03.005Z,93.18
2023-03-06T16:24:29.835Z,90.40
2023-03-06T16:26:56.196Z,86.28
2023-03-06T16:29:23.057Z,85.22
2023-03-06T16:31:49.928Z,84.60
2023-03-06T16:34:16.717Z,87.90
2023-03-06T16:36:43.096Z,81.18
2023-03-06T16:39:09.562Z,81.63
2023-03-06T16:41:35.973Z,77.60
2023-03-06T16:44:02.352Z,81.57
2023-03-06T16:46:29.260Z,76.53
2023-03-06T16:48:55.908Z,77.03
2023-03-06T16:51:22.339Z,75.35
2023-03-06T16:53:48.780Z,72.10
2023-03-06T16:56:15.417Z,71.25
2023-03-06T16:58:41.884Z,70.10
2023-03-06T17:01:08.408Z,67.38
2023-03-06T17:03:34.781Z,72.53
2023-03-06T17:06:01.393Z,68.50
2023-03-06T17:08:27.802Z,67.80
2023-03-06T17:10:54.388Z,64.85
2023-03-06T17:13:20.884Z,64.90
2023-03-06T17:15:47.539Z,62.47
2023-03-06T17:18:13.951Z,64.35
2023-03-06T17:20:40.240Z,61.92
2023-03-06T17:23:07.109Z,61.90
2023-03-06T17:25:33.706Z,61.85
2023-03-06T17:28:00.061Z,61.88
2023-03-06T17:30:26.472Z,58.78
2023-03-06T17:32:53.186Z,58.65
2023-03-06T17:35:19.869Z,58.05
2023-03-06T17:37:46.303Z,59.63
2023-03-06T17:40:12.582Z,53.55
2023-03-06T17:42:39.035Z,55.78
2023-03-06T17:45:05.590Z,57.55
2023-03-06T17:47:31.992Z,53.45
2023-03-06T17:49:58.317Z,52.38
2023-03-06T17:52:24.832Z,52.30
2023-03-06T17:54:51.554Z,51.85
2023-03-06T17:57:18.009Z,50.22
2023-03-06T17:59:44.847Z,48.42
2023-03-06T18:02:11.246Z,48.63
2023-03-06T18:04:38.294Z,49.47
2023-03-06T18:07:04.633Z,48.55
2023-03-06T18:09:30.937Z,48.85
2023-03-06T18:11:57.448Z,43.90
2023-03-06T18:14:23.837Z,44.28
2023-03-06T18:16:50.189Z,45.05
2023-03-06T18:19:17.066Z,44.08
2023-03-06T18:21:43.417Z,41.20
2023-03-06T18:24:10.104Z,42.35
2023-03-06T18:26:36.763Z,42.65
2023-03-06T18:29:03.280Z,42.53
2023-03-06T18:31:30.473Z,41.10
2023-03-06T18:33:57.838Z,38.72
2023-03-06T18:36:24.262Z,39.50
2023-03-06T18:38:51.103Z,37.80
2023-03-06T18:41:17.738Z,37.05
2023-03-06T18:43:44.740Z,38.50
2023-03-06T18:46:11.148Z,40.35
2023-03-06T18:48:37.919Z,35.42
2023-03-06T18:51:04.302Z,34.95
2023-03-06T18:53:30.759Z,35.63
2023-03-06T18:55:57.048Z,34.85
2023-03-06T18:58:23.587Z,33.80
2023-03-06T19:00:49.964Z,35.42
2023-03-06T19:03:16.483Z,34.00
2023-03-06T19:05:42.965Z,33.70
2023-03-06T19:08:09.643Z,31.38
2023-03-06T19:10:36.010Z,36.15
2023-03-06T19:13:02.790Z,30.27
2023-03-06T19:15:29.164Z,32.40
2023-03-06T19:17:55.763Z,31.63
2023-03-06T19:20:22.127Z,30.25
2023-03-06T19:22:48.788Z,31.30
2023-03-06T19:25:15.502Z,28.05
2023-03-06T19:27:42.094Z,29.27
2023-03-06T19:30:09.541Z,29.85
2023-03-06T19:32:36.065Z,29.48
2023-03-06T19:35:02.734Z,29.48
2023-03-06T19:37:29.124Z,26.92
2023-03-06T19:39:55.772Z,27.63
2023-03-06T19:42:22.347Z,28.52
2023-03-06T19:44:49.089Z,27.00
2023-03-06T19:47:15.394Z,24.70
2023-03-06T19:49:41.856Z,25.63
2023-03-06T19:52:08.745Z,25.27
2023-03-06T19:54:35.333Z,24.67
2023-03-06T19:57:02.097Z,25.10
2023-03-06T19:59:28.842Z,23.90
2023-03-06T20:01:55.265Z,23.33
2023-03-06T20:04:21.580Z,23.95
2023-03-06T20:06:48.178Z,23.48
2023-03-06T20:09:15.121Z,23.50
2023-03-06T20:11:41.535Z,22.98
2023-03-06T20:14:08.194Z,24.90
2023-03-06T20:16:34.703Z,21.25
2023-03-06T20:19:01.184Z,21.42
2023-03-06T20:21:27.691Z,23.42
2023-03-06T20:23:54.382Z,22.60
2023-03-06T20:26:20.717Z,20.90
2023-03-06T20:28:47.523Z,21.83
2023-03-06T20:31:13.878Z,20.70
2023-03-06T20:33:40.243Z,20.60
2023-03-06T20:36:07.401Z,21.38
2023-03-06T20:38:34.028Z,21.27
2023-03-06T20:41:00.726Z,19.92
2023-03-06T20:43:27.712Z,20.73
2023-03-06T20:45:54.378Z,19.20
2023-03-06T20:48:20.798Z,19.80
2023-03-06T20:50:47.110Z,19.63
2023-03-06T20:53:13.429Z,20.90
2023-03-06T20:55:39.954Z,20.35
2023-03-06T20:58:06.438Z,18.13
2023-03-06T21:00:32.874Z,19.70
2023-03-06T21:02:59.853Z,19.10
2023-03-06T21:05:26.312Z,17.80
2023-03-06T21:07:52.714Z,18.52
2023-03-06T21:10:18.987Z,18.38
2023-03-06T21:12:45.797Z,18.73
2023-03-06T21:15:12.128Z,17.50
2023-03-06T21:17:39.133Z,17.70
2023-03-06T21:20:05.512Z,18.10
2023-03-06T21:22:31.968Z,18.00
2023-03-06T21:24:58.913Z,17.27
2023-03-06T21:27:25.314Z,18.27
2023-03-06T21:29:51.801Z,17.02
2023-03-06T21:32:18.202Z,17.08
2023-03-06T21:34:44.612Z,16.75
2023-03-06T21:37:11.332Z,16.23
2023-03-06T21:39:37.913Z,18.08
2023-03-06T21:42:04.336Z,15.82
2023-03-06T21:44:30.744Z,16.63
2023-03-06T21:46:57.082Z,15.68
2023-03-06T21:49:23.687Z,16.13
2023-03-06T21:51:50.154Z,16.77
2023-03-06T21:54:16.519Z,16.65
2023-03-06T21:56:42.909Z,16.52
2023-03-06T21:59:09.253Z,15.70
2023-03-06T22:01:35.610Z,14.93
2023-03-06T22:04:02.066Z,15.07
2023-03-06T22:06:29.102Z,15.30
2023-03-06T22:08:55.484Z,13.90
2023-03-06T22:11:22.264Z,14.77
2023-03-06T22:13:48.771Z,14.52
2023-03-06T22:16:15.367Z,16.05
2023-03-06T22:18:41.907Z,14.48
2023-03-06T22:21:08.221Z,15.32
2023-03-06T22:23:35.346Z,15.07
2023-03-06T22:26:01.875Z,15.18
2023-03-06T22:28:28.855Z,14.27
2023-03-06T22:30:55.385Z,15.48
2023-03-06T22:33:21.804Z,14.30
2023-03-06T22:35:48.151Z,14.52
2023-03-06T22:38:14.493Z,14.60
2023-03-06T22:40:40.901Z,15.60
2023-03-06T22:43:07.769Z,15.23
2023-03-06T22:45:34.755Z,14.18
2023-03-06T22:48:10.432Z,13.93
2023-03-06T22:50:37.259Z,14.40
2023-03-06T22:53:03.674Z,14.32
2023-03-06T22:55:29.974Z,13.63
2023-03-06T22:57:56.706Z,12.77
2023-03-06T23:00:23.244Z,13.68
2023-03-06T23:02:50.340Z,14.13
2023-03-06T23:05:17.425Z,14.48
2023-03-06T23:07:44.108Z,15.18
2023-03-06T23:10:11.147Z,14.82
2023-03-06T23:12:37.526Z,14.38
2023-03-06T23:15:04.114Z,14.73
2023-03-06T23:17:30.550Z,13.15
2023-03-06T23:19:57.735Z,13.98
2023-03-06T23:22:24.195Z,14.82
2023-03-06T23:24:50.789Z,13.90
2023-03-06T23:27:17.108Z,13.77
2023-03-06T23:29:43.444Z,14.55
2023-03-06T23:32:09.823Z,15.15
2023-03-06T23:34:36.312Z,13.27
2023-03-06T23:37:02.669Z,15.05
2023-03-06T23:39:29.346Z,15.70
2023-03-06T23:41:55.597Z,13.70
2023-03-06T23:44:22.030Z,14.88
2023-03-06T23:46:48.501Z,15.95
2023-03-06T23:49:14.883Z,15.98
2023-03-06T23:51:41.267Z,15.50
2023-03-06T23:54:07.641Z,14.15
2023-03-06T23:56:34.031Z,15.05
2023-03-06T23:59:00.489Z,14.00
